Terminal Aerodrome Forecast
Issued by NWS

Home | Current Version | Previous Version | Text Only | Print | Product List | Glossary Off
Versions: 1 2 3 4 5 6 7 8 9 10 11 12 13 14 15 16 17 18 19 20 21 22

000
FTUS43 KBIS 222325
TAFDIK
TAF
KDIK 222325Z 2300/2324 28012KT P6SM BKN010
     FM230200 25007KT P6SM BKN008
     FM230800 22006KT 3SM BR BKN003
     FM231100 15005KT 1/2SM FG BKN003
     FM231700 09007KT 2SM BR BKN003
     FM232000 08009KT P6SM OVC003=

USA.gov is the U.S. government's official web portal to all federal, state and local government web resources and services.